Time;durP1;ratioP1;P1;durP2;ratioP2;P2;SDS_P1;SDS_P2;PMS_P1;PMS_P2;Temp;Humidity;BMP_temperature;BMP_pressure;BME280_temperature;BME280_humidity;BME280_pressure;Samples;Min_cycle;Max_cycle;Signal;HPM_P1;HPM_P2
2021/11/06 00:00:56;;;;;;;9.48;3.75;;;;;;;3.79;100.00;100058.16;4900212;29;20043;-71
2021/11/06 00:03:22;;;;;;;11.55;4.93;;;;;;;3.85;100.00;100057.47;4900255;29;20064;-71
2021/11/06 00:05:47;;;;;;;5.55;3.67;;;;;;;3.79;100.00;100055.59;4898823;29;20028;-71
2021/11/06 00:08:13;;;;;;;5.35;3.50;;;;;;;3.78;100.00;100053.84;4900208;29;20083;-71
2021/11/06 00:10:38;;;;;;;16.02;4.60;;;;;;;3.81;100.00;100063.31;4900225;29;20039;-71
2021/11/06 00:13:04;;;;;;;5.43;4.43;;;;;;;3.69;100.00;100056.13;4889317;29;20024;-71
2021/11/06 00:15:29;;;;;;;5.32;4.25;;;;;;;3.75;100.00;100053.75;4894832;29;20029;-71
2021/11/06 00:17:55;;;;;;;9.68;5.57;;;;;;;3.71;100.00;100063.88;4900006;29;20420;-71
2021/11/06 00:20:20;;;;;;;6.25;4.53;;;;;;;3.62;100.00;100059.31;4900023;29;20024;-71
2021/11/06 00:22:45;;;;;;;16.15;4.60;;;;;;;3.57;100.00;100058.31;4899802;29;20024;-71
2021/11/06 00:25:12;;;;;;;4.53;4.07;;;;;;;3.71;100.00;100057.03;4899746;29;20100;-71
2021/11/06 00:27:39;;;;;;;5.93;3.75;;;;;;;3.59;100.00;100061.81;4899818;29;20119;-71
2021/11/06 00:30:06;;;;;;;6.68;4.93;;;;;;;3.52;100.00;100049.63;4899771;29;20066;-71
2021/11/06 00:32:32;;;;;;;5.00;3.70;;;;;;;3.50;100.00;100052.16;4899499;29;20032;-71
2021/11/06 00:34:58;;;;;;;3.75;3.28;;;;;;;3.52;100.00;100059.88;4899898;29;20024;-71
2021/11/06 00:37:24;;;;;;;11.13;5.30;;;;;;;3.43;100.00;100057.00;4899589;29;20501;-71
2021/11/06 00:39:49;;;;;;;5.93;2.85;;;;;;;3.45;100.00;100053.69;4899666;29;20020;-71
2021/11/06 00:42:15;;;;;;;6.90;3.95;;;;;;;3.41;100.00;100056.97;4891869;29;20441;-71
2021/11/06 00:44:40;;;;;;;7.00;3.40;;;;;;;3.54;100.00;100059.09;4891651;29;20029;-71
2021/11/06 00:47:06;;;;;;;3.15;2.10;;;;;;;3.60;100.00;100058.41;4899747;29;20028;-71
2021/11/06 00:49:32;;;;;;;1.95;1.83;;;;;;;3.43;100.00;100059.56;4899517;29;20036;-71
2021/11/06 00:51:57;;;;;;;3.42;3.10;;;;;;;3.55;100.00;100060.84;4899357;29;20389;-71
2021/11/06 00:54:23;;;;;;;11.95;3.92;;;;;;;3.51;100.00;100063.25;4899335;29;20028;-71
2021/11/06 00:56:48;;;;;;;4.22;3.78;;;;;;;3.42;100.00;100062.97;4898975;29;20036;-71
2021/11/06 00:59:15;;;;;;;4.22;3.30;;;;;;;3.36;100.00;100068.78;4899258;29;20443;-71
2021/11/06 08:02:04;;;;;;;3.92;2.90;;;;;;;4.00;100.00;100198.94;5115407;23;20347;-75
2021/11/06 08:04:29;;;;;;;3.50;2.20;;;;;;;3.90;100.00;100193.47;4892168;29;20041;-75
2021/11/06 08:06:55;;;;;;;4.32;3.85;;;;;;;4.06;100.00;100204.28;4878857;29;20060;-74
2021/11/06 08:09:20;;;;;;;3.35;2.75;;;;;;;4.04;100.00;100199.91;4881562;29;20056;-75
2021/11/06 08:11:46;;;;;;;10.02;3.75;;;;;;;4.12;100.00;100211.28;4888807;29;20107;-74
2021/11/06 08:14:14;;;;;;;5.07;3.00;;;;;;;4.08;100.00;100201.75;4892862;29;20120;-75
2021/11/06 08:16:40;;;;;;;2.58;2.28;;;;;;;3.83;100.00;100200.13;4900079;29;20084;-74
2021/11/06 08:19:05;;;;;;;3.83;3.53;;;;;;;3.88;100.00;100197.69;4900095;29;20482;-72
2021/11/06 08:21:30;;;;;;;6.05;3.40;;;;;;;4.17;100.00;100191.78;4899799;29;20091;-72
2021/11/06 08:23:56;;;;;;;1.48;1.38;;;;;;;4.36;100.00;100194.06;4899945;29;20020;-72
2021/11/06 08:26:21;;;;;;;7.30;3.13;;;;;;;4.43;100.00;100189.09;4900107;29;20032;-80
2021/11/06 08:28:46;;;;;;;4.47;2.58;;;;;;;4.47;100.00;100196.94;4899914;29;20031;-70
2021/11/06 08:31:12;;;;;;;6.15;4.32;;;;;;;4.38;100.00;100200.09;4899575;29;20080;-70
2021/11/06 08:33:37;;;;;;;5.53;3.55;;;;;;;4.27;100.00;100192.91;4899750;29;20076;-78
2021/11/06 08:36:03;;;;;;;6.97;3.30;;;;;;;4.53;100.00;100201.38;4899820;29;20602;-71
2021/11/06 08:38:29;;;;;;;2.60;2.40;;;;;;;4.67;100.00;100199.22;4899761;29;20029;-72
2021/11/06 08:40:55;;;;;;;5.45;3.88;;;;;;;4.50;100.00;100202.19;4899396;29;20529;-69
2021/11/06 08:43:21;;;;;;;3.22;2.47;;;;;;;4.71;100.00;100201.03;4891767;29;20025;-74
2021/11/06 08:45:47;;;;;;;6.07;3.88;;;;;;;4.83;100.00;100207.38;4899623;29;20079;-73
2021/11/06 08:48:13;;;;;;;2.72;2.47;;;;;;;4.75;100.00;100206.31;4899525;29;20107;-76
2021/11/06 08:50:39;;;;;;;6.82;3.70;;;;;;;4.29;100.00;100215.22;4899481;29;20111;-74
2021/11/06 08:53:04;;;;;;;4.50;4.03;;;;;;;4.42;100.00;100213.91;4899076;29;20115;-74
2021/11/06 08:55:29;;;;;;;5.07;3.75;;;;;;;4.15;100.00;100221.63;4899436;29;20035;-81
2021/11/06 08:57:56;;;;;;;5.47;3.58;;;;;;;4.06;100.00;100218.75;4899379;29;20028;-78
2021/11/06 09:00:32;;;;;;;3.38;2.97;;;;;;;4.21;100.00;100219.25;4899291;29;20100;-71
2021/11/06 09:03:07;;;;;;;2.17;2.05;;;;;;;4.39;100.00;100224.94;4899272;29;20020;-70
2021/11/06 09:05:34;;;;;;;4.32;3.40;;;;;;;4.39;100.00;100224.94;4899247;29;20029;-72
2021/11/06 09:08:00;;;;;;;4.75;3.75;;;;;;;4.55;100.00;100221.16;4899167;29;20490;-76
2021/11/06 09:10:26;;;;;;;12.18;5.93;;;;;;;4.39;100.00;100214.66;4899203;29;20033;-76
2021/11/06 09:12:52;;;;;;;8.30;3.90;;;;;;;4.51;100.00;100223.56;4890897;29;20428;-76
2021/11/06 09:15:18;;;;;;;2.13;2.03;;;;;;;4.66;100.00;100218.88;4899101;29;20032;-76
2021/11/06 09:17:43;;;;;;;5.88;4.22;;;;;;;4.81;100.00;100218.44;4897486;29;20482;-77
2021/11/06 09:20:09;;;;;;;4.00;3.53;;;;;;;5.07;100.00;100221.72;4872986;29;20032;-75
2021/11/06 09:22:36;;;;;;;5.05;4.13;;;;;;;4.86;100.00;100225.44;4906915;29;20417;-76
2021/11/06 09:25:03;;;;;;;6.65;3.45;;;;;;;4.35;100.00;100228.25;4898895;29;20029;-77
2021/11/06 09:27:28;;;;;;;6.13;3.17;;;;;;;4.67;100.00;100223.19;4898875;29;20031;-74
2021/11/06 09:29:54;;;;;;;2.55;2.33;;;;;;;4.81;100.00;100228.72;4804029;29;20040;-75
2021/11/06 09:32:21;;;;;;;4.43;4.05;;;;;;;4.90;100.00;100217.00;4906500;29;20076;-75
2021/11/06 09:34:47;;;;;;;4.10;3.70;;;;;;;4.96;100.00;100223.16;4898428;29;20036;-75
2021/11/06 09:37:13;;;;;;;3.90;2.25;;;;;;;4.93;99.52;100217.91;4898474;29;20044;-74
2021/11/06 09:39:38;;;;;;;7.75;3.15;;;;;;;4.97;99.39;100224.88;4898431;29;20028;-74
2021/11/06 09:42:05;;;;;;;5.82;4.40;;;;;;;5.08;99.64;100215.78;4895140;29;20415;-75
2021/11/06 09:44:31;;;;;;;7.53;3.78;;;;;;;4.93;100.00;100212.78;4893073;29;20494;-75
2021/11/06 09:46:58;;;;;;;5.93;3.47;;;;;;;4.64;100.00;100221.41;4898406;29;20108;-75
2021/11/06 09:49:24;;;;;;;3.92;3.58;;;;;;;4.75;100.00;100211.44;4898235;29;20028;-75
2021/11/06 09:51:50;;;;;;;7.72;3.22;;;;;;;4.90;100.00;100204.16;4897736;29;20035;-75
2021/11/06 09:54:16;;;;;;;2.30;2.05;;;;;;;5.07;100.00;100217.47;4896774;29;20456;-74
2021/11/06 09:56:42;;;;;;;8.65;3.95;;;;;;;5.25;100.00;100217.09;4898096;29;20043;-75
2021/11/06 09:59:08;;;;;;;5.13;3.88;;;;;;;5.48;98.66;100206.56;4898012;29;20028;-75
2021/11/06 10:01:34;;;;;;;4.50;3.17;;;;;;;5.23;98.61;100220.47;4892935;29;20025;-75
2021/11/06 10:04:07;;;;;;;3.92;3.38;;;;;;;5.10;99.44;100214.97;4879251;29;20109;-75
2021/11/06 10:06:32;;;;;;;3.47;3.22;;;;;;;5.36;99.94;100219.94;4879429;29;20029;-75
2021/11/06 10:08:57;;;;;;;10.05;3.50;;;;;;;5.22;98.41;100222.19;4879469;29;20039;-75
2021/11/06 10:11:28;;;;;;;2.95;2.70;;;;;;;5.87;97.87;100215.25;4884160;29;20047;-74
2021/11/06 10:14:05;;;;;;;4.68;4.28;;;;;;;5.87;97.14;100225.53;4890113;29;20431;-75
2021/11/06 10:16:33;;;;;;;14.32;4.97;;;;;;;5.01;98.63;100216.44;4897826;29;20039;-75
2021/11/06 10:19:08;;;;;;;3.60;3.30;;;;;;;4.72;100.00;100218.19;4898069;29;20053;-74
2021/11/06 10:21:35;;;;;;;6.68;4.25;;;;;;;5.08;99.73;100214.09;4897601;29;20056;-75
2021/11/06 10:24:00;;;;;;;5.57;3.67;;;;;;;5.29;98.66;100208.63;4889018;29;20063;-75
2021/11/06 10:26:26;;;;;;;6.15;3.63;;;;;;;5.96;97.35;100213.78;4883280;29;20124;-75
2021/11/06 10:29:14;;;;;;;5.50;3.53;;;;;;;5.57;96.84;100211.94;4878980;29;20029;-75
2021/11/06 10:31:55;;;;;;;5.53;3.40;;;;;;;5.73;95.57;100216.59;4878589;29;20025;-75
2021/11/06 10:34:25;;;;;;;3.97;3.58;;;;;;;5.73;96.10;100210.59;4879018;29;20021;-75
2021/11/06 10:36:59;;;;;;;6.13;5.53;;;;;;;5.50;98.59;100207.44;4878805;29;20037;-76
2021/11/06 10:39:24;;;;;;;6.88;2.88;;;;;;;5.78;97.12;100204.72;4879001;29;20108;-75
2021/11/06 10:41:50;;;;;;;7.60;3.80;;;;;;;5.63;95.10;100199.22;4886019;29;20112;-75
2021/11/06 10:44:19;;;;;;;4.95;3.92;;;;;;;5.41;96.40;100192.66;4878869;29;20383;-75
2021/11/06 10:46:53;;;;;;;5.20;2.85;;;;;;;5.37;96.47;100186.59;4878641;29;20033;-75
2021/11/06 10:49:31;;;;;;;5.45;3.53;;;;;;;5.96;95.61;100182.91;4878866;29;20029;-75
2021/11/06 10:52:08;;;;;;;13.68;4.95;;;;;;;6.13;94.72;100172.13;4877067;29;20116;-75
2021/11/06 10:54:54;;;;;;;4.63;3.83;;;;;;;5.83;93.52;100174.84;4886255;29;20021;-75
2021/11/06 10:57:23;;;;;;;3.45;2.83;;;;;;;5.76;93.80;100185.84;4859831;29;20507;-76
2021/11/06 11:00:17;;;;;;;6.85;3.85;;;;;;;5.86;94.39;100177.50;4860061;29;20037;-75
2021/11/06 11:02:43;;;;;;;4.63;3.22;;;;;;;5.86;95.45;100169.78;4859807;29;20067;-75
2021/11/06 11:05:34;;;;;;;3.75;3.35;;;;;;;6.04;94.59;100171.06;4860011;29;20073;-75
2021/11/06 11:08:10;;;;;;;13.73;4.25;;;;;;;5.86;93.93;100168.94;4859877;29;20506;-75
2021/11/06 11:10:37;;;;;;;3.38;3.10;;;;;;;5.65;96.29;100161.53;4874136;29;20444;-75
2021/11/06 11:13:13;;;;;;;3.35;3.05;;;;;;;6.18;94.79;100154.22;4887385;29;20108;-76
2021/11/06 11:15:45;;;;;;;3.25;2.67;;;;;;;6.13;93.81;100155.84;4897095;29;20036;-75
2021/11/06 11:18:29;;;;;;;3.13;2.78;;;;;;;6.34;95.19;100151.16;4896950;29;20611;-76
2021/11/06 11:21:10;;;;;;;4.53;3.10;;;;;;;6.34;93.51;100145.16;4896903;29;20410;-75
2021/11/06 11:23:35;;;;;;;5.07;4.15;;;;;;;6.59;92.11;100149.09;4889152;29;20026;-75
2021/11/06 11:26:01;;;;;;;8.75;5.10;;;;;;;6.52;92.69;100139.50;4889087;29;20028;-80
2021/11/06 11:28:27;;;;;;;5.68;3.72;;;;;;;6.67;91.97;100132.97;4896991;29;20032;-79
2021/11/06 11:30:53;;;;;;;8.30;4.97;;;;;;;6.78;90.72;100128.00;4896730;29;20052;-79
2021/11/06 11:33:19;;;;;;;8.73;5.03;;;;;;;6.83;89.83;100130.69;4896778;29;20521;-79
2021/11/06 11:35:45;;;;;;;4.68;3.33;;;;;;;6.55;90.88;100132.72;4896752;29;20092;-79
2021/11/06 11:38:10;;;;;;;6.78;3.63;;;;;;;6.63;90.26;100127.72;4896903;29;20394;-79
2021/11/06 11:40:37;;;;;;;3.78;3.42;;;;;;;6.94;88.71;100124.00;4896983;29;20039;-79
2021/11/06 11:43:37;;;;;;;4.05;3.53;;;;;;;6.98;88.61;100122.34;4892559;29;20073;-79
2021/11/06 11:46:09;;;;;;;7.80;4.60;;;;;;;7.17;88.58;100127.00;4900474;29;20020;-79
2021/11/06 11:48:36;;;;;;;6.10;3.40;;;;;;;7.28;88.48;100122.03;4899492;29;20036;-79
2021/11/06 11:51:04;;;;;;;4.65;4.25;;;;;;;7.21;87.56;100121.94;4900423;29;20056;-79
2021/11/06 11:53:35;;;;;;;7.15;4.13;;;;;;;7.04;87.62;100119.88;4892590;29;20020;-79
2021/11/06 11:56:14;;;;;;;6.05;3.88;;;;;;;6.99;87.87;100116.34;4892429;29;20032;-79
2021/11/06 11:58:40;;;;;;;5.00;4.13;;;;;;;7.05;88.12;100119.03;4881177;29;20025;-73
2021/11/06 12:01:15;;;;;;;9.35;4.43;;;;;;;7.31;87.55;100120.38;4888665;29;20755;-77
2021/11/06 12:03:44;;;;;;;5.60;4.43;;;;;;;7.28;86.86;100115.16;4888256;29;20033;-74
2021/11/06 12:06:20;;;;;;;4.32;3.15;;;;;;;7.25;86.83;100115.09;4884763;29;20094;-75
2021/11/06 12:08:46;;;;;;;7.57;3.97;;;;;;;7.32;87.41;100111.78;4900114;29;20142;-71
2021/11/06 12:11:17;;;;;;;3.50;3.20;;;;;;;7.53;86.07;100106.09;4899587;29;20115;-74
2021/11/06 12:13:48;;;;;;;5.30;3.15;;;;;;;7.66;86.45;100109.75;4868764;29;20052;-75
2021/11/06 12:16:16;;;;;;;7.25;4.72;;;;;;;7.65;85.11;100108.03;4899624;29;20032;-78
2021/11/06 12:19:06;;;;;;;4.30;3.90;;;;;;;7.55;86.70;100108.72;4900007;29;20051;-77
2021/11/06 12:21:40;;;;;;;4.75;4.00;;;;;;;7.75;86.00;100094.41;4899487;29;20032;-76
2021/11/06 12:24:08;;;;;;;3.97;3.08;;;;;;;7.65;84.98;100100.28;4889409;29;20021;-73
2021/11/06 12:26:45;;;;;;;6.70;5.88;;;;;;;7.54;85.43;100094.06;4895190;29;20079;-76
2021/11/06 12:29:10;;;;;;;6.55;5.78;;;;;;;7.51;87.33;100096.63;4899777;29;20047;-74
2021/11/06 12:31:38;;;;;;;7.60;5.15;;;;;;;7.51;87.15;100096.63;4899537;29;20024;-75
2021/11/06 12:34:08;;;;;;;7.55;4.40;;;;;;;7.22;87.79;100090.16;4898166;29;20027;-75
2021/11/06 12:36:41;;;;;;;4.45;4.05;;;;;;;6.97;89.07;100087.13;4898673;29;20061;-76
2021/11/06 12:39:07;;;;;;;5.28;3.97;;;;;;;6.83;89.29;100092.03;4899675;29;20063;-76
2021/11/06 12:41:35;;;;;;;3.15;2.78;;;;;;;6.92;89.94;100090.50;4899315;29;20450;-76
2021/11/06 12:44:04;;;;;;;4.75;3.53;;;;;;;7.30;89.23;100082.56;4891529;29;20032;-76
2021/11/06 12:46:33;;;;;;;3.00;2.30;;;;;;;7.22;87.56;100081.56;4899561;29;20055;-75
2021/11/06 12:49:01;;;;;;;5.88;3.08;;;;;;;7.71;85.91;100069.41;4899527;29;20148;-76
2021/11/06 12:51:39;;;;;;;3.75;2.42;;;;;;;7.71;84.37;100064.25;4899201;29;20024;-75
2021/11/06 12:54:08;;;;;;;6.07;4.20;;;;;;;7.70;85.07;100062.53;4887974;29;20021;-76
2021/11/06 12:56:41;;;;;;;5.30;3.75;;;;;;;8.09;84.30;100058.75;4894797;29;20091;-76
2021/11/06 12:59:13;;;;;;;4.43;3.13;;;;;;;7.76;83.48;100054.84;4899155;29;20085;-76
2021/11/06 13:01:44;;;;;;;4.72;3.05;;;;;;;8.32;81.33;100052.16;4899077;29;20119;-76
2021/11/06 13:04:15;;;;;;;6.47;3.80;;;;;;;8.88;79.44;100051.03;4899128;29;20028;-76
2021/11/06 13:06:42;;;;;;;3.78;3.42;;;;;;;8.92;77.78;100048.47;4899205;29;20036;-76
2021/11/06 13:09:18;;;;;;;8.20;3.60;;;;;;;8.71;79.50;100053.47;4899039;29;20036;-76
2021/11/06 13:11:56;;;;;;;4.93;2.88;;;;;;;8.79;80.23;100046.63;4898926;29;20169;-75
2021/11/06 13:14:40;;;;;;;5.47;4.32;;;;;;;8.48;80.71;100040.28;4892582;29;20494;-76
2021/11/06 13:17:10;;;;;;;3.38;2.90;;;;;;;8.29;80.20;100039.19;4898981;29;20059;-76
2021/11/06 13:19:49;;;;;;;4.15;3.75;;;;;;;8.37;81.76;100032.44;4898899;29;20048;-75
2021/11/06 13:22:55;;;;;;;3.88;3.08;;;;;;;8.35;81.34;100028.91;4894686;29;20439;-76
2021/11/06 13:25:37;;;;;;;6.10;3.20;;;;;;;8.32;81.27;100022.88;4881510;29;20029;-76
2021/11/06 13:28:11;;;;;;;4.70;3.58;;;;;;;8.36;81.29;100025.50;4879997;29;20033;-76
2021/11/06 13:30:44;;;;;;;4.72;3.88;;;;;;;8.05;82.06;100018.25;4880008;29;20029;-76
2021/11/06 13:33:14;;;;;;;9.30;3.55;;;;;;;8.09;83.01;100015.72;4879826;29;20025;-76
2021/11/06 13:36:01;;;;;;;5.63;3.80;;;;;;;8.00;82.45;100010.44;4879807;29;20036;-76
2021/11/06 13:38:41;;;;;;;4.95;3.38;;;;;;;7.92;83.97;100005.19;4879847;29;20413;-75
2021/11/06 13:41:19;;;;;;;5.53;4.93;;;;;;;7.93;83.68;99998.34;4882551;29;20390;-76
2021/11/06 13:43:57;;;;;;;3.88;3.15;;;;;;;7.46;85.74;100002.00;4890796;29;20024;-76
2021/11/06 13:46:32;;;;;;;5.25;3.03;;;;;;;7.61;85.05;99995.31;4898355;29;20520;-76
2021/11/06 13:48:58;;;;;;;8.35;4.47;;;;;;;7.85;85.63;99990.47;4898420;29;20394;-76
2021/11/06 13:51:34;;;;;;;6.00;3.70;;;;;;;7.59;84.71;99991.84;4898037;29;20029;-76
2021/11/06 13:54:12;;;;;;;4.53;4.10;;;;;;;7.78;86.09;99983.50;4888282;29;20021;-76
2021/11/06 13:56:58;;;;;;;4.32;3.22;;;;;;;7.20;87.01;99993.00;4894315;29;20042;-76
2021/11/06 13:59:49;;;;;;;6.60;3.83;;;;;;;6.75;89.50;99990.56;4898220;29;20040;-76
2021/11/06 14:02:18;;;;;;;3.00;2.70;;;;;;;6.98;88.17;99986.66;4896031;29;20037;-76
2021/11/06 14:04:56;;;;;;;5.13;4.13;;;;;;;7.32;87.38;99977.72;4897291;29;20453;-76
2021/11/06 14:07:24;;;;;;;4.00;3.03;;;;;;;7.42;87.23;99973.56;4897913;29;20024;-75
2021/11/06 14:10:03;;;;;;;3.25;2.92;;;;;;;7.34;88.07;99973.44;4897902;29;20048;-76
2021/11/06 14:12:34;;;;;;;6.27;4.10;;;;;;;7.38;87.49;99966.63;4891508;29;20029;-75
2021/11/06 14:15:00;;;;;;;4.75;3.88;;;;;;;7.47;87.15;99967.63;4897180;29;20024;-76
2021/11/06 14:17:25;;;;;;;5.45;3.42;;;;;;;7.47;86.88;99967.63;4897768;29;20028;-76
2021/11/06 14:19:57;;;;;;;4.53;3.35;;;;;;;7.26;86.91;99963.91;4897851;29;20020;-76
2021/11/06 14:22:28;;;;;;;8.48;3.88;;;;;;;7.45;87.14;99964.19;4892372;29;20033;-76
2021/11/06 14:25:04;;;;;;;7.25;3.67;;;;;;;7.31;88.25;99963.13;4888180;29;20375;-75
2021/11/06 14:27:31;;;;;;;9.52;6.13;;;;;;;7.14;88.84;99956.84;4897903;29;20041;-76
2021/11/06 14:30:22;;;;;;;10.57;5.18;;;;;;;7.33;89.08;99956.25;4897603;29;20099;-75
2021/11/06 14:33:03;;;;;;;8.82;5.47;;;;;;;7.38;89.35;99959.75;4896279;29;20592;-75
2021/11/06 14:35:33;;;;;;;6.47;4.40;;;;;;;7.38;88.21;99957.19;4897661;29;20032;-76
2021/11/06 14:37:59;;;;;;;8.10;3.88;;;;;;;7.17;89.54;99962.03;4897629;29;20554;-76
2021/11/06 14:40:27;;;;;;;4.13;3.50;;;;;;;7.04;90.43;99954.97;4897307;29;20032;-75
2021/11/06 14:42:53;;;;;;;4.68;4.28;;;;;;;7.16;91.22;99950.00;4889444;29;20025;-75
2021/11/06 14:45:22;;;;;;;4.22;3.80;;;;;;;7.10;91.40;99942.16;4897120;29;20061;-76
2021/11/06 14:48:09;;;;;;;5.43;3.45;;;;;;;6.97;91.69;99942.84;4897630;29;20032;-73
2021/11/06 14:50:39;;;;;;;4.05;3.60;;;;;;;6.80;91.94;99946.00;4897204;29;20033;-73
2021/11/06 14:53:16;;;;;;;6.75;3.65;;;;;;;6.73;92.92;99938.19;4889252;29;20474;-73
2021/11/06 14:55:53;;;;;;;3.85;3.25;;;;;;;6.75;92.45;99934.78;4889166;29;20072;-73
2021/11/06 14:58:18;;;;;;;4.72;4.30;;;;;;;6.67;91.91;99932.09;4897232;29;20031;-73
2021/11/06 15:00:45;;;;;;;4.13;3.78;;;;;;;6.55;92.69;99933.59;4896899;29;20037;-73
2021/11/06 15:03:17;;;;;;;7.82;4.88;;;;;;;6.37;93.56;99940.13;4897114;29;20024;-73
2021/11/06 15:05:48;;;;;;;6.55;4.78;;;;;;;6.34;94.12;99937.53;4897031;29;20108;-73
2021/11/06 15:08:15;;;;;;;3.42;3.13;;;;;;;6.30;94.01;99935.72;4897022;29;20501;-73
2021/11/06 15:10:44;;;;;;;8.18;3.83;;;;;;;6.33;94.55;99933.19;4896850;29;20032;-73
2021/11/06 15:13:12;;;;;;;5.95;3.65;;;;;;;6.41;94.64;99931.63;4888964;29;20013;-73
2021/11/06 15:15:38;;;;;;;18.38;8.55;;;;;;;6.52;93.87;99924.09;4895374;29;20440;-73
2021/11/06 15:18:06;;;;;;;8.00;5.22;;;;;;;6.43;93.80;99932.53;4896978;29;20025;-73
2021/11/06 15:20:33;;;;;;;6.15;4.15;;;;;;;6.44;93.49;99926.53;4896662;29;20036;-73
2021/11/06 15:23:01;;;;;;;4.88;3.28;;;;;;;6.39;93.81;99925.59;4894682;29;20050;-73
2021/11/06 15:25:29;;;;;;;5.72;5.07;;;;;;;6.05;94.11;99928.41;4891252;29;20036;-73
2021/11/06 15:27:55;;;;;;;5.32;3.58;;;;;;;6.13;95.05;99934.53;4896752;29;20433;-73
2021/11/06 15:30:21;;;;;;;5.65;3.67;;;;;;;6.14;94.40;99928.56;4896758;29;20123;-73
2021/11/06 15:32:47;;;;;;;4.85;3.05;;;;;;;6.23;93.92;99933.88;4896347;29;20021;-73
2021/11/06 15:35:14;;;;;;;5.50;4.95;;;;;;;6.01;94.37;99934.34;4896720;29;20103;-73
2021/11/06 15:37:40;;;;;;;5.82;3.80;;;;;;;6.05;94.83;99936.13;4896648;29;20043;-73
2021/11/06 15:40:09;;;;;;;11.45;6.38;;;;;;;5.94;95.27;99943.63;4896769;29;20032;-73
2021/11/06 15:42:35;;;;;;;5.50;3.97;;;;;;;5.93;95.61;99937.59;4889578;29;20058;-73
2021/11/06 15:45:00;;;;;;;6.85;4.93;;;;;;;5.90;94.82;99937.53;4895511;29;20276;-73
2021/11/06 15:47:26;;;;;;;5.97;3.58;;;;;;;5.81;95.49;99932.22;4896580;29;20033;-73
2021/11/06 15:49:51;;;;;;;5.13;4.55;;;;;;;5.81;95.30;99933.91;4896598;29;20024;-73
2021/11/06 15:52:16;;;;;;;8.57;4.90;;;;;;;5.70;95.76;99933.69;4896010;29;20021;-73
2021/11/06 15:54:42;;;;;;;8.73;5.07;;;;;;;5.57;96.64;99931.72;4888695;29;20115;-73
2021/11/06 15:57:07;;;;;;;4.60;3.85;;;;;;;5.64;96.38;99933.56;4896652;29;20035;-73
2021/11/06 15:59:33;;;;;;;5.15;4.32;;;;;;;5.41;96.75;99936.53;4896471;29;20068;-73
2021/11/06 16:01:58;;;;;;;8.02;4.47;;;;;;;5.40;97.44;99942.50;4896309;29;20032;-73
2021/11/06 16:04:23;;;;;;;4.25;3.85;;;;;;;5.33;97.40;99938.06;4896325;29;20105;-73
2021/11/06 16:06:49;;;;;;;5.30;4.47;;;;;;;5.56;95.55;99930.84;4896547;29;20060;-74
2021/11/06 16:09:14;;;;;;;8.30;2.67;;;;;;;5.27;97.19;99929.34;4896371;29;20028;-75
2021/11/06 16:11:41;;;;;;;5.57;3.95;;;;;;;5.21;97.01;99932.66;4895572;29;20188;-75
2021/11/06 16:14:07;;;;;;;7.38;4.78;;;;;;;5.18;96.68;99927.47;4888402;29;20024;-76
2021/11/06 16:16:38;;;;;;;7.38;4.68;;;;;;;5.09;97.39;99927.25;4896416;29;20514;-76
2021/11/06 16:19:05;;;;;;;5.68;2.88;;;;;;;5.01;97.59;99939.03;4896297;29;20029;-76
2021/11/06 16:21:30;;;;;;;6.22;4.00;;;;;;;5.01;98.06;99939.03;4895749;29;20036;-75
2021/11/06 16:23:56;;;;;;;6.00;3.55;;;;;;;4.92;98.35;99938.81;4888039;29;20025;-75
2021/11/06 16:26:23;;;;;;;8.50;4.70;;;;;;;4.78;98.66;99934.22;4896239;29;20032;-74
2021/11/06 16:28:51;;;;;;;2.90;2.65;;;;;;;4.67;99.17;99939.94;4898407;29;20028;-74
2021/11/06 16:31:18;;;;;;;4.15;2.85;;;;;;;4.72;99.06;99931.53;4899009;29;20028;-76
2021/11/06 16:33:44;;;;;;;3.92;3.30;;;;;;;4.77;98.80;99929.06;4899751;29;20032;-77
2021/11/06 16:36:11;;;;;;;6.95;4.90;;;;;;;4.73;98.58;99933.25;4899262;29;20491;-78
2021/11/06 16:38:36;;;;;;;6.55;5.32;;;;;;;4.67;98.83;99925.41;4899908;29;20033;-76
2021/11/06 16:41:01;;;;;;;6.28;3.17;;;;;;;4.75;98.90;99925.59;4883364;29;20513;-75
2021/11/06 16:43:27;;;;;;;7.78;3.85;;;;;;;4.62;99.63;99934.69;4886170;29;20032;-75
2021/11/06 16:45:53;;;;;;;6.40;4.28;;;;;;;4.58;99.27;99927.75;4899547;29;20084;-75
2021/11/06 16:48:19;;;;;;;4.65;3.53;;;;;;;4.74;99.27;99932.44;4899879;29;20116;-75
2021/11/06 16:50:46;;;;;;;6.68;4.43;;;;;;;4.69;98.57;99931.47;4899368;29;20111;-75
2021/11/06 16:53:13;;;;;;;2.75;2.55;;;;;;;4.58;99.50;99938.03;4899334;29;20512;-75
2021/11/06 16:55:38;;;;;;;10.13;3.40;;;;;;;4.52;100.00;99922.47;4899389;29;20036;-75
2021/11/06 16:58:04;;;;;;;9.05;4.00;;;;;;;4.61;100.00;99933.84;4899508;29;20104;-75
2021/11/06 17:00:30;;;;;;;5.53;4.90;;;;;;;4.51;100.00;99923.31;4899156;29;20032;-75
2021/11/06 17:02:56;;;;;;;6.05;3.97;;;;;;;4.47;100.00;99924.06;4898925;29;20068;-75
2021/11/06 17:05:21;;;;;;;5.15;4.63;;;;;;;4.44;100.00;99929.09;4899236;29;20105;-76
2021/11/06 17:07:52;;;;;;;13.00;4.32;;;;;;;4.41;100.00;99929.06;4899154;29;20049;-75
2021/11/06 17:12:44;;;;;;;8.00;4.00;;;;;;;4.35;100.00;99925.50;4879978;29;20069;-75
2021/11/06 17:15:11;;;;;;;3.65;3.35;;;;;;;4.39;100.00;99929.00;4861859;29;20295;-75
2021/11/06 17:17:37;;;;;;;4.60;4.18;;;;;;;4.33;100.00;99932.28;4861917;29;20440;-75
2021/11/06 17:20:03;;;;;;;4.18;3.78;;;;;;;4.33;100.00;99927.13;4861865;29;20038;-75
2021/11/06 17:22:29;;;;;;;7.85;5.38;;;;;;;4.43;100.00;99928.25;4861318;29;20037;-76
2021/11/06 17:24:54;;;;;;;4.28;3.67;;;;;;;4.49;100.00;99930.09;4861786;29;20029;-75
2021/11/06 17:27:21;;;;;;;4.53;2.75;;;;;;;4.42;100.00;99930.78;4861636;29;20169;-75
2021/11/06 17:29:47;;;;;;;5.40;4.13;;;;;;;4.36;100.00;99932.38;4861613;29;20029;-75
2021/11/06 17:32:12;;;;;;;4.80;3.95;;;;;;;4.36;100.00;99932.38;4861386;29;20108;-75
2021/11/06 17:34:38;;;;;;;13.75;5.32;;;;;;;4.31;100.00;99928.81;4864965;29;20032;-75
2021/11/06 17:37:04;;;;;;;16.67;5.68;;;;;;;4.39;100.00;99937.56;4879819;29;20037;-75
2021/11/06 17:39:30;;;;;;;9.70;4.70;;;;;;;4.44;100.00;99937.66;4879812;29;20060;-75
2021/11/06 17:41:55;;;;;;;6.88;3.50;;;;;;;4.52;100.00;99933.59;4887343;29;20063;-75
2021/11/06 17:44:20;;;;;;;9.90;3.83;;;;;;;4.49;100.00;99937.78;4889937;29;20036;-75
2021/11/06 17:46:47;;;;;;;5.40;3.95;;;;;;;4.43;100.00;99932.50;4879608;29;20032;-75
2021/11/06 17:49:16;;;;;;;7.35;4.32;;;;;;;4.41;99.83;99939.31;4879898;29;20025;-75
2021/11/06 17:51:55;;;;;;;5.45;4.03;;;;;;;4.33;100.00;99927.13;4879508;29;20520;-75
2021/11/06 17:54:21;;;;;;;3.47;3.15;;;;;;;4.20;100.00;99930.22;4879642;29;20124;-75
2021/11/06 17:56:46;;;;;;;8.88;3.03;;;;;;;4.17;100.00;99922.47;4879619;29;20065;-75
2021/11/06 17:59:12;;;;;;;7.88;5.50;;;;;;;4.13;100.00;99925.75;4879762;29;20033;-75
2021/11/06 18:01:41;;;;;;;5.25;3.70;;;;;;;4.26;100.00;99935.53;4878591;29;20104;-75
2021/11/06 18:04:07;;;;;;;7.88;4.95;;;;;;;4.23;100.00;99930.31;4879416;29;20061;-75
2021/11/06 18:06:32;;;;;;;4.32;2.85;;;;;;;4.24;100.00;99934.59;4879520;29;20037;-75
2021/11/06 18:08:57;;;;;;;13.02;7.28;;;;;;;4.10;100.00;99934.22;4879530;29;20108;-75
2021/11/06 18:11:23;;;;;;;7.18;6.10;;;;;;;4.11;100.00;99935.13;4883846;29;20039;-75
2021/11/06 18:13:49;;;;;;;10.05;4.50;;;;;;;4.22;100.00;99937.97;4890100;29;20017;-75
2021/11/06 18:16:15;;;;;;;3.08;2.85;;;;;;;4.34;100.00;99934.00;4897991;29;20039;-75
2021/11/06 18:18:40;;;;;;;6.68;3.75;;;;;;;4.42;100.00;99930.78;4898106;29;20028;-75
2021/11/06 18:21:06;;;;;;;4.78;3.50;;;;;;;4.23;100.00;99929.44;4897694;29;20382;-75
2021/11/06 18:23:32;;;;;;;4.22;3.83;;;;;;;4.18;100.00;99920.75;4886639;29;20021;-75
2021/11/06 18:25:58;;;;;;;4.68;4.25;;;;;;;4.19;100.00;99927.63;4878798;29;20057;-72
2021/11/06 18:28:24;;;;;;;6.97;4.47;;;;;;;4.15;100.00;99928.34;4879127;29;20025;-73
2021/11/06 18:30:50;;;;;;;8.95;5.60;;;;;;;4.17;99.89;99925.03;4878848;29;20376;-72
2021/11/06 18:33:15;;;;;;;6.75;3.20;;;;;;;4.12;99.36;99926.59;4897381;29;20088;-72
2021/11/06 18:35:41;;;;;;;5.00;3.63;;;;;;;3.79;100.00;99917.16;4897477;29;20502;-72
2021/11/06 18:38:06;;;;;;;4.65;4.25;;;;;;;3.73;100.00;99917.00;4897761;29;20056;-73
2021/11/06 18:40:32;;;;;;;4.38;3.80;;;;;;;3.79;100.00;99912.03;4897458;29;20024;-72
2021/11/06 18:42:58;;;;;;;5.40;4.32;;;;;;;3.92;100.00;99914.94;4889201;29;20025;-74
2021/11/06 18:45:31;;;;;;;10.52;2.60;;;;;;;4.28;100.00;99910.75;4897554;29;20080;-72